Conrad, Iowa
Current Conditions -  °F | °C
As of 12:53 PM on Tuesday 27 Jan 2015 (Local Time) from KMIW Reporting Station
Overcast Overcast  
Wind Chill: 32°   Ceiling: 1700
Heat Index: 37°   Visibility: 10mi
Dew Point: 30°   Wind: 6mph
Humidity: 76%   Direction: 110°ESE
Pressure: 30.15"   Gusts: NA
Location:  42.22°N, 92.87°W
Report Text: KMIW 271853Z AUTO 11005KT 10SM OVC017 03/M01 A3015 RMK AO2 SLP220 T00281011
Loading
Personal Weather Stations






























Interactive Weather Map New forecast layout! Learn more

10-Day Weather Forecast

Advertisements
Track Severe Weather on mobile